createdAt,value
2022-08-07T00:00:18.707Z,98337.72
2022-08-07T00:01:44.439Z,98340.22
2022-08-07T00:02:45.963Z,98338.84
2022-08-07T00:03:49.201Z,98335.75
2022-08-07T00:04:52.032Z,98336.44
2022-08-07T00:05:56.219Z,98341.34
2022-08-07T00:07:01.462Z,98340.22
2022-08-07T00:08:08.577Z,98335.91
2022-08-07T00:09:21.227Z,98339.44
2022-08-07T00:10:26.137Z,98336.84
2022-08-07T00:11:33.109Z,98327.94
2022-08-07T00:12:36.247Z,98342.09
2022-08-07T00:13:59.390Z,98338.63
2022-08-07T00:15:02.439Z,98337.34
2022-08-07T00:16:07.058Z,98339.00
2022-08-07T00:17:10.627Z,98338.50
2022-08-07T00:18:19.231Z,98340.53
2022-08-07T00:19:25.945Z,98340.88
2022-08-07T00:20:29.879Z,98343.94
2022-08-07T00:21:56.329Z,98340.28
2022-08-07T00:23:00.209Z,98337.47
2022-08-07T00:24:03.076Z,98343.00
2022-08-07T00:25:16.486Z,98335.12
2022-08-07T00:26:58.446Z,98328.97
2022-08-07T00:27:52.515Z,98325.53
2022-08-07T00:29:00.659Z,98326.59
2022-08-07T00:30:06.220Z,98330.16
2022-08-07T00:31:37.867Z,98331.56
2022-08-07T00:32:44.400Z,98332.34
2022-08-07T00:33:48.247Z,98333.44
2022-08-07T00:34:51.121Z,98332.06
2022-08-07T00:35:58.730Z,98333.13
2022-08-07T00:37:05.046Z,98336.97
2022-08-07T00:38:08.527Z,98336.97
2022-08-07T00:39:16.541Z,98342.97
2022-08-07T00:40:39.028Z,98334.31
2022-08-07T00:41:53.655Z,98334.66
2022-08-07T00:43:09.953Z,98337.09
2022-08-07T00:44:15.143Z,98337.09
2022-08-07T00:45:18.279Z,98336.41
2022-08-07T00:46:21.108Z,98328.16
2022-08-07T00:48:08.158Z,98332.53
2022-08-07T00:48:49.909Z,98334.78
2022-08-07T00:50:21.168Z,98327.09
2022-08-07T00:51:17.610Z,98328.97
2022-08-07T00:52:20.468Z,98328.06
2022-08-07T00:53:23.540Z,98327.25
2022-08-07T00:54:26.445Z,98328.84
2022-08-07T00:56:02.600Z,98331.22
2022-08-07T00:56:53.323Z,98327.44
2022-08-07T00:57:56.890Z,98328.81
2022-08-07T00:59:00.718Z,98323.16
2022-08-07T01:00:08.347Z,98317.09
2022-08-07T01:01:11.498Z,98323.50
2022-08-07T01:02:28.099Z,98316.72
2022-08-07T01:03:56.828Z,98313.34
2022-08-07T01:04:58.350Z,98318.69
2022-08-07T01:06:03.557Z,98325.69
2022-08-07T01:07:06.639Z,98327.16
2022-08-07T01:08:11.436Z,98325.25
2022-08-07T01:10:06.803Z,98317.63
2022-08-07T01:10:39.544Z,98322.25
2022-08-07T01:12:09.622Z,98330.44
2022-08-07T01:13:16.416Z,98326.16
2022-08-07T01:14:28.256Z,98322.47
2022-08-07T01:16:01.306Z,98323.09
2022-08-07T01:16:58.649Z,98327.56
2022-08-07T01:18:02.041Z,98324.16
2022-08-07T01:19:14.837Z,98321.81
2022-08-07T01:20:33.526Z,98317.91
2022-08-07T01:21:36.952Z,98315.63
2022-08-07T01:22:46.833Z,98312.25
2022-08-07T01:24:04.274Z,98312.25
2022-08-07T01:25:40.058Z,98318.72
2022-08-07T01:26:33.915Z,98314.75
2022-08-07T01:27:37.454Z,98318.28
2022-08-07T01:28:54.231Z,98318.56
2022-08-07T01:29:57.478Z,98314.84
2022-08-07T01:31:02.897Z,98317.50
2022-08-07T01:32:12.282Z,98312.19
2022-08-07T01:33:17.429Z,98303.69
2022-08-07T01:34:30.710Z,98311.41
2022-08-07T01:35:52.684Z,98313.06
2022-08-07T01:36:58.017Z,98310.75
2022-08-07T01:38:01.538Z,98309.66
2022-08-07T01:39:09.997Z,98310.25
2022-08-07T01:40:15.115Z,98311.06
2022-08-07T01:41:26.220Z,98305.97
2022-08-07T01:42:38.669Z,98312.38
2022-08-07T01:43:43.764Z,98314.25
2022-08-07T01:44:48.053Z,98309.53
2022-08-07T01:45:54.378Z,98314.44
2022-08-07T01:47:01.212Z,98311.44
2022-08-07T01:48:30.753Z,98304.50
2022-08-07T01:49:33.934Z,98311.94
2022-08-07T01:50:42.899Z,98317.63
2022-08-07T01:52:01.911Z,98318.22
2022-08-07T01:53:09.695Z,98321.19
2022-08-07T01:54:37.058Z,98323.50
2022-08-07T01:55:47.712Z,98321.34
2022-08-07T01:56:57.028Z,98321.25
2022-08-07T01:58:06.356Z,98316.56
2022-08-07T01:59:35.484Z,98320.28
2022-08-07T02:00:49.136Z,98313.69
2022-08-07T02:02:07.449Z,98315.03
2022-08-07T02:03:21.353Z,98319.94
2022-08-07T02:04:56.136Z,98320.19
2022-08-07T02:06:30.808Z,98323.03
2022-08-07T02:07:35.742Z,98315.94
2022-08-07T02:08:50.510Z,98315.09
2022-08-07T02:09:59.229Z,98315.56
2022-08-07T02:11:04.950Z,98317.19
2022-08-07T02:12:20.203Z,98316.00
2022-08-07T02:13:56.533Z,98322.03
2022-08-07T02:14:58.834Z,98316.56
2022-08-07T02:16:07.467Z,98313.84
2022-08-07T02:17:16.540Z,98312.97
2022-08-07T02:18:36.783Z,98317.41
2022-08-07T02:20:04.156Z,98318.84
2022-08-07T02:21:16.009Z,98318.53
2022-08-07T02:22:20.585Z,98319.28
2022-08-07T02:23:35.729Z,98318.63
2022-08-07T02:24:44.537Z,98325.09
2022-08-07T02:26:26.624Z,98328.47
2022-08-07T02:27:14.554Z,98331.81
2022-08-07T02:28:24.415Z,98330.06
2022-08-07T02:29:29.530Z,98332.16
2022-08-07T02:30:35.729Z,98332.97
2022-08-07T02:31:39.997Z,98327.62
2022-08-07T02:33:03.962Z,98333.28
2022-08-07T02:34:11.572Z,98335.19
2022-08-07T02:36:30.525Z,98334.00
2022-08-07T02:36:45.961Z,98334.91
2022-08-07T02:37:50.691Z,98335.56
2022-08-07T02:38:56.787Z,98342.41
2022-08-07T02:40:29.915Z,98335.59
2022-08-07T02:41:26.228Z,98330.63
2022-08-07T02:42:40.748Z,98341.22
2022-08-07T02:43:48.924Z,98336.31
2022-08-07T02:44:53.772Z,98339.00
2022-08-07T02:46:04.717Z,98337.16
2022-08-07T02:47:08.743Z,98334.25
2022-08-07T02:48:23.156Z,98329.50
2022-08-07T02:49:28.743Z,98346.59
2022-08-07T02:50:53.141Z,98340.22
2022-08-07T02:51:59.200Z,98337.22
2022-08-07T02:53:07.257Z,98339.87
2022-08-07T02:54:15.527Z,98342.34
2022-08-07T02:56:03.291Z,98341.41
2022-08-07T02:56:56.569Z,98340.09
2022-08-07T02:58:06.774Z,98336.25
2022-08-07T02:59:18.589Z,98338.00
2022-08-07T03:00:30.198Z,98340.09
2022-08-07T03:01:35.947Z,98333.44
2022-08-07T03:02:54.963Z,98327.97
2022-08-07T03:03:58.835Z,98337.78
2022-08-07T03:05:06.972Z,98339.19
2022-08-07T03:06:16.423Z,98336.84
2022-08-07T03:08:05.239Z,98338.81
2022-08-07T03:08:54.643Z,98339.97
2022-08-07T03:09:57.351Z,98339.41
2022-08-07T03:11:00.450Z,98336.81
2022-08-07T03:12:08.097Z,98333.44
2022-08-07T03:13:24.703Z,98335.06
2022-08-07T03:14:29.901Z,98341.50
2022-08-07T03:15:56.775Z,98338.44
2022-08-07T03:16:57.309Z,98335.22
2022-08-07T03:18:01.108Z,98339.25
2022-08-07T03:19:04.940Z,98331.63
2022-08-07T03:20:08.463Z,98342.97
2022-08-07T03:21:12.126Z,98335.22
2022-08-07T03:22:24.321Z,98345.22
2022-08-07T03:24:18.302Z,98339.78
2022-08-07T03:24:57.412Z,98342.56
2022-08-07T03:26:02.121Z,98330.72
2022-08-07T03:27:09.094Z,98334.91
2022-08-07T03:28:37.546Z,98334.44
2022-08-07T03:29:49.582Z,98332.34
2022-08-07T03:31:14.576Z,98337.44
2022-08-07T03:32:21.541Z,98335.78
2022-08-07T03:33:32.263Z,98338.50
2022-08-07T03:34:47.206Z,98348.00
2022-08-07T03:36:03.925Z,98339.81
2022-08-07T03:37:27.501Z,98340.19
2022-08-07T03:38:33.159Z,98335.75
2022-08-07T03:39:59.922Z,98341.38
2022-08-07T03:41:05.727Z,98327.03
2022-08-07T03:42:14.557Z,98341.16
2022-08-07T03:43:17.404Z,98339.44
2022-08-07T03:44:21.797Z,98341.03
2022-08-07T03:45:39.814Z,98341.84
2022-08-07T03:47:14.242Z,98351.12
2022-08-07T03:48:11.602Z,98340.31
2022-08-07T03:49:14.633Z,98351.59
2022-08-07T03:50:23.028Z,98353.28
2022-08-07T03:51:30.689Z,98349.81
2022-08-07T03:52:35.515Z,98346.97
2022-08-07T03:54:05.666Z,98351.56
2022-08-07T03:55:06.503Z,98351.66
2022-08-07T03:56:13.725Z,98353.34
2022-08-07T03:58:33.099Z,98364.25
2022-08-07T03:59:09.242Z,98357.53
2022-08-07T04:00:05.056Z,98361.59
2022-08-07T04:01:14.475Z,98362.72
2022-08-07T04:02:17.428Z,98369.34
2022-08-07T04:03:22.128Z,98368.03
2022-08-07T04:04:25.212Z,98361.31
2022-08-07T04:05:40.375Z,98369.44
2022-08-07T04:06:44.497Z,98366.16
2022-08-07T04:07:47.960Z,98370.50
2022-08-07T04:08:52.606Z,98367.06
2022-08-07T04:09:55.703Z,98370.56
2022-08-07T04:12:23.561Z,98369.78
2022-08-07T04:12:27.614Z,98384.63
2022-08-07T04:14:33.172Z,98384.78
2022-08-07T04:14:59.399Z,98389.41
2022-08-07T04:16:04.802Z,98384.69
2022-08-07T04:17:19.993Z,98390.78
2022-08-07T04:18:59.891Z,98387.34
2022-08-07T04:19:52.939Z,98388.53
2022-08-07T04:20:57.790Z,98388.94
2022-08-07T04:22:07.859Z,98382.88
2022-08-07T04:23:19.522Z,98390.22
2022-08-07T04:24:30.505Z,98388.25
2022-08-07T04:25:44.643Z,98388.62
2022-08-07T04:26:50.859Z,98392.97
2022-08-07T04:28:00.401Z,98396.81
2022-08-07T04:29:04.270Z,98399.06
2022-08-07T04:30:11.869Z,98400.25
2022-08-07T04:31:38.667Z,98395.81
2022-08-07T04:32:48.433Z,98402.56
2022-08-07T04:34:02.058Z,98401.22
2022-08-07T04:35:07.049Z,98404.50
2022-08-07T04:36:10.266Z,98407.63
2022-08-07T04:37:15.375Z,98409.50
2022-08-07T04:38:25.727Z,98407.97
2022-08-07T04:39:35.834Z,98401.41
2022-08-07T04:40:51.307Z,98405.78
2022-08-07T04:41:54.415Z,98404.38
2022-08-07T04:43:01.607Z,98401.63
2022-08-07T04:44:12.865Z,98409.16
2022-08-07T04:45:57.173Z,98403.66
2022-08-07T04:47:04.742Z,98412.19
2022-08-07T04:48:18.670Z,98399.09
2022-08-07T04:49:24.649Z,98400.47
2022-08-07T04:50:56.934Z,98405.22
2022-08-07T04:52:36.010Z,98406.16
2022-08-07T04:54:15.310Z,98398.41
2022-08-07T04:58:15.667Z,98405.53
2022-08-07T04:58:24.504Z,98415.13
2022-08-07T04:59:17.218Z,98409.34
2022-08-07T05:00:31.717Z,98408.59
2022-08-07T05:01:50.605Z,98397.25
2022-08-07T05:04:00.114Z,98401.88
2022-08-07T05:05:53.291Z,98407.72
2022-08-07T05:06:51.664Z,98405.41
2022-08-07T05:08:59.570Z,98401.25
2022-08-07T05:10:01.025Z,98399.09
2022-08-07T05:11:19.331Z,98399.53
2022-08-07T05:12:58.585Z,98398.06
2022-08-07T05:14:54.549Z,98406.19
2022-08-07T05:15:44.151Z,98400.78
2022-08-07T05:16:52.690Z,98401.91
2022-08-07T05:18:00.525Z,98406.72
2022-08-07T05:19:12.601Z,98406.59
2022-08-07T05:20:18.970Z,98405.12
2022-08-07T05:21:58.970Z,98414.66
2022-08-07T05:22:51.730Z,98404.66
2022-08-07T05:24:00.422Z,98412.50
2022-08-07T05:25:03.292Z,98421.94
2022-08-07T05:26:23.762Z,98414.03
2022-08-07T05:28:02.574Z,98413.19
2022-08-07T05:28:56.423Z,98421.16
2022-08-07T05:30:00.738Z,98418.88
2022-08-07T05:31:04.795Z,98414.72
2022-08-07T05:32:08.805Z,98422.44
2022-08-07T05:33:15.392Z,98424.50
2022-08-07T05:34:26.411Z,98424.91
2022-08-07T05:35:42.248Z,98424.91
2022-08-07T05:36:49.326Z,98415.91
2022-08-07T05:38:08.893Z,98417.50
2022-08-07T05:40:05.547Z,98418.97
2022-08-07T05:40:50.610Z,98425.75
2022-08-07T05:42:01.664Z,98424.16
2022-08-07T05:43:10.628Z,98427.38
2022-08-07T05:44:17.830Z,98429.47
2022-08-07T05:45:46.477Z,98421.44
2022-08-07T05:46:51.587Z,98423.28
2022-08-07T05:48:02.441Z,98434.50
2022-08-07T05:49:12.207Z,98429.31
2022-08-07T05:50:16.727Z,98436.41
2022-08-07T05:51:20.871Z,98435.34
2022-08-07T05:52:29.857Z,98427.69
2022-08-07T05:54:12.565Z,98438.78
2022-08-07T05:54:58.768Z,98432.81
2022-08-07T05:56:12.502Z,98429.06
2022-08-07T05:57:17.110Z,98432.69
2022-08-07T05:58:35.924Z,98436.84
2022-08-07T05:59:57.881Z,98429.59
2022-08-07T06:01:05.012Z,98425.47
2022-08-07T06:02:15.331Z,98427.47
2022-08-07T06:03:24.220Z,98421.13
2022-08-07T06:04:30.310Z,98425.00
2022-08-07T06:05:34.693Z,98428.25
2022-08-07T06:06:38.305Z,98431.09
2022-08-07T06:08:13.790Z,98430.59
2022-08-07T06:09:17.027Z,98422.31
2022-08-07T06:10:20.450Z,98420.31
2022-08-07T06:11:23.570Z,98434.22
2022-08-07T06:12:27.968Z,98423.84
2022-08-07T06:14:11.676Z,98429.56
2022-08-07T06:15:05.295Z,98433.97
2022-08-07T06:16:10.169Z,98428.88
2022-08-07T06:17:17.443Z,98435.22
2022-08-07T06:18:21.708Z,98442.44
2022-08-07T06:19:48.014Z,98440.22
2022-08-07T06:20:50.773Z,98450.22
2022-08-07T06:22:22.792Z,98440.97
2022-08-07T06:24:38.269Z,98448.53
2022-08-07T06:24:58.200Z,98443.75
2022-08-07T06:26:05.161Z,98452.25
2022-08-07T06:27:10.061Z,98446.44
2022-08-07T06:28:14.082Z,98444.69
2022-08-07T06:29:17.677Z,98446.22
2022-08-07T06:30:32.120Z,98452.88
2022-08-07T06:31:49.817Z,98453.47
2022-08-07T06:32:53.319Z,98456.31
2022-08-07T06:33:56.151Z,98448.28
2022-08-07T06:35:01.036Z,98456.31
2022-08-07T06:36:11.940Z,98455.66
2022-08-07T06:37:17.009Z,98456.03
2022-08-07T06:38:20.863Z,98459.44
2022-08-07T06:40:16.591Z,98461.84
2022-08-07T06:40:54.566Z,98461.69
2022-08-07T06:42:05.210Z,98461.72
2022-08-07T06:43:21.002Z,98467.16
2022-08-07T06:44:33.888Z,98471.78
2022-08-07T06:45:38.051Z,98472.25
2022-08-07T06:46:41.242Z,98470.16
2022-08-07T06:47:56.985Z,98473.16
2022-08-07T06:49:04.486Z,98473.28
2022-08-07T06:50:08.297Z,98481.16
2022-08-07T06:51:31.334Z,98480.44
2022-08-07T06:52:38.996Z,98479.38
2022-08-07T06:55:29.403Z,98471.16
2022-08-07T06:55:53.353Z,98485.78
2022-08-07T06:56:56.428Z,98482.00
2022-08-07T06:58:09.537Z,98485.00
2022-08-07T07:00:13.861Z,98485.09
2022-08-07T07:00:45.700Z,98481.06
2022-08-07T07:01:50.818Z,98474.19
2022-08-07T07:03:00.845Z,98479.28
2022-08-07T07:04:28.546Z,98473.16
2022-08-07T07:06:02.598Z,98480.38
2022-08-07T07:07:00.374Z,98475.78
2022-08-07T07:08:06.659Z,98476.53
2022-08-07T07:09:36.397Z,98478.75
2022-08-07T07:10:39.156Z,98479.03
2022-08-07T07:12:16.692Z,98476.91
2022-08-07T07:13:56.031Z,98471.66
2022-08-07T07:15:23.980Z,98469.09
2022-08-07T07:16:39.080Z,98466.41
2022-08-07T07:18:09.462Z,98467.47
2022-08-07T07:19:57.032Z,98466.53
2022-08-07T07:20:45.595Z,98465.72
2022-08-07T07:22:05.111Z,98474.75
2022-08-07T07:24:09.211Z,98471.00
2022-08-07T07:24:38.620Z,98468.91
2022-08-07T07:26:33.836Z,98471.88
2022-08-07T07:27:15.766Z,98470.81
2022-08-07T07:28:42.249Z,98472.34
2022-08-07T07:30:09.316Z,98469.63
2022-08-07T07:31:44.672Z,98467.53
2022-08-07T07:32:50.853Z,98461.66
2022-08-07T07:33:57.908Z,98477.44
2022-08-07T07:35:03.867Z,98469.84
2022-08-07T07:36:13.564Z,98466.78
2022-08-07T07:37:45.520Z,98476.16
2022-08-07T07:38:46.225Z,98465.06
2022-08-07T07:39:55.527Z,98467.91
2022-08-07T07:41:02.638Z,98467.97
2022-08-07T07:42:13.723Z,98472.69
2022-08-07T07:43:27.735Z,98468.28
2022-08-07T07:44:49.676Z,98467.50
2022-08-07T07:46:36.560Z,98464.34
2022-08-07T07:47:51.779Z,98472.50
2022-08-07T07:48:45.628Z,98462.31
2022-08-07T07:50:34.582Z,98467.38
2022-08-07T07:51:15.539Z,98467.78
2022-08-07T07:52:24.319Z,98478.91
2022-08-07T07:53:28.927Z,98471.66
2022-08-07T07:54:37.899Z,98461.87
2022-08-07T07:55:45.582Z,98466.47
2022-08-07T07:56:59.977Z,98467.19
2022-08-07T07:58:06.131Z,98467.78
2022-08-07T07:59:12.439Z,98474.28
2022-08-07T08:00:29.869Z,98475.13
2022-08-07T08:02:02.666Z,98473.62
2022-08-07T08:03:16.528Z,98468.25
2022-08-07T08:04:25.528Z,98482.81
2022-08-07T08:05:42.759Z,98478.66
2022-08-07T08:06:53.513Z,98482.06
2022-08-07T08:08:00.675Z,98471.78
2022-08-07T08:09:08.229Z,98478.31
2022-08-07T08:10:35.753Z,98477.66
2022-08-07T08:11:59.677Z,98479.19
2022-08-07T08:13:03.075Z,98480.91
2022-08-07T08:14:05.966Z,98484.00
2022-08-07T08:15:09.969Z,98477.63
2022-08-07T08:16:24.987Z,98485.59
2022-08-07T08:18:17.665Z,98480.97
2022-08-07T08:18:55.940Z,98481.38
2022-08-07T08:20:19.385Z,98480.97
2022-08-07T08:21:55.399Z,98480.75
2022-08-07T08:23:28.130Z,98482.72
2022-08-07T08:25:18.744Z,98480.34
2022-08-07T08:26:43.490Z,98476.91
2022-08-07T08:28:01.866Z,98478.72
2022-08-07T08:29:08.474Z,98481.41
2022-08-07T08:30:17.532Z,98479.63
2022-08-07T08:31:59.345Z,98474.66
2022-08-07T08:32:54.574Z,98479.22
2022-08-07T08:34:01.924Z,98470.44
2022-08-07T08:35:09.928Z,98480.84
2022-08-07T08:36:13.657Z,98480.41
2022-08-07T08:38:01.362Z,98482.34
2022-08-07T08:38:49.761Z,98483.16
2022-08-07T08:39:58.665Z,98484.75
2022-08-07T08:41:11.898Z,98482.06
2022-08-07T08:42:37.222Z,98489.34
2022-08-07T08:43:59.500Z,98479.41
2022-08-07T08:45:41.494Z,98482.06
2022-08-07T08:47:03.138Z,98480.16
2022-08-07T08:48:32.520Z,98484.75
2022-08-07T08:49:46.462Z,98483.22
2022-08-07T08:51:14.532Z,98485.13
2022-08-07T08:52:53.688Z,98485.50
2022-08-07T08:54:19.244Z,98484.37
2022-08-07T08:55:53.902Z,98487.06
2022-08-07T08:57:07.443Z,98482.78
2022-08-07T08:58:28.575Z,98481.97
2022-08-07T09:00:00.081Z,98484.97
2022-08-07T09:01:19.429Z,98490.28
2022-08-07T09:02:43.892Z,98492.34
2022-08-07T09:04:16.667Z,98482.69
2022-08-07T09:05:52.954Z,98487.78
2022-08-07T09:07:23.172Z,98491.50
2022-08-07T09:08:48.071Z,98487.62
2022-08-07T09:10:36.411Z,98484.25
2022-08-07T09:11:53.350Z,98484.03
2022-08-07T09:13:37.565Z,98492.72
2022-08-07T09:16:22.086Z,98477.47
2022-08-07T09:16:57.775Z,98484.00
2022-08-07T09:18:22.689Z,98481.81
2022-08-07T09:19:53.337Z,98486.47
2022-08-07T09:21:34.185Z,98489.34
2022-08-07T09:24:32.668Z,98487.53
2022-08-07T09:24:33.365Z,98486.66
2022-08-07T09:25:56.573Z,98483.06
2022-08-07T09:27:13.368Z,98482.56
2022-08-07T09:30:05.360Z,98482.63
2022-08-07T09:30:08.693Z,98482.16
2022-08-07T09:31:48.676Z,98472.06
2022-08-07T09:33:05.247Z,98476.97
2022-08-07T09:34:27.223Z,98469.25
2022-08-07T09:36:05.385Z,98471.78
2022-08-07T09:37:48.482Z,98473.81
2022-08-07T09:39:52.474Z,98474.59
2022-08-07T09:41:06.879Z,98472.03
2022-08-07T09:42:39.282Z,98470.56
2022-08-07T09:44:05.853Z,98473.28
2022-08-07T09:47:25.942Z,98477.03
2022-08-07T09:47:51.179Z,98469.41
2022-08-07T09:50:02.196Z,98475.34
2022-08-07T09:50:39.870Z,98467.47
2022-08-07T09:52:33.868Z,98467.75
2022-08-07T09:53:55.167Z,98460.94
2022-08-07T09:55:17.066Z,98467.63
2022-08-07T09:57:05.454Z,98462.09
2022-08-07T09:58:32.256Z,98467.13
2022-08-07T10:00:03.908Z,98456.72
2022-08-07T10:01:50.418Z,98463.41
2022-08-07T10:04:06.621Z,98453.63
2022-08-07T10:04:39.542Z,98458.41
2022-08-07T10:06:38.126Z,98459.50
2022-08-07T10:07:54.979Z,98456.94
2022-08-07T10:09:15.353Z,98456.44
2022-08-07T10:11:07.610Z,98453.81
2022-08-07T10:12:39.836Z,98449.88
2022-08-07T10:14:03.929Z,98449.94
2022-08-07T10:15:20.095Z,98449.88
2022-08-07T10:16:59.523Z,98449.50
2022-08-07T10:18:41.056Z,98457.19
2022-08-07T10:19:55.708Z,98443.75
2022-08-07T10:21:50.549Z,98441.91
2022-08-07T10:22:57.414Z,98437.59
2022-08-07T10:24:25.342Z,98440.44
2022-08-07T10:25:44.702Z,98440.38
2022-08-07T10:27:24.635Z,98438.84
2022-08-07T10:28:51.746Z,98434.03
2022-08-07T10:29:58.878Z,98432.66
2022-08-07T10:31:38.830Z,98433.78
2022-08-07T10:33:14.898Z,98425.16
2022-08-07T10:34:31.750Z,98423.72
2022-08-07T10:36:05.563Z,98431.63
2022-08-07T10:38:20.983Z,98429.47
2022-08-07T10:40:02.908Z,98427.34
2022-08-07T10:41:46.915Z,98429.38
2022-08-07T10:43:04.596Z,98426.66
2022-08-07T10:44:45.502Z,98428.91
2022-08-07T10:45:57.314Z,98421.06
2022-08-07T10:47:11.751Z,98423.28
2022-08-07T10:48:41.780Z,98428.09
2022-08-07T10:50:19.446Z,98424.56
2022-08-07T10:52:01.545Z,98416.72
2022-08-07T10:53:28.661Z,98417.09
2022-08-07T10:55:26.845Z,98416.50
2022-08-07T10:56:43.572Z,98410.38
2022-08-07T10:58:12.333Z,98403.22
2022-08-07T10:59:37.025Z,98415.75
2022-08-07T11:01:35.624Z,98411.72
2022-08-07T11:03:04.205Z,98411.56
2022-08-07T11:04:31.880Z,98411.31
2022-08-07T11:05:51.006Z,98402.41
2022-08-07T11:07:03.232Z,98400.94
2022-08-07T11:08:21.251Z,98404.19
2022-08-07T11:10:09.593Z,98402.00
2022-08-07T11:11:08.184Z,98404.97
2022-08-07T11:12:31.273Z,98402.63
2022-08-07T11:14:45.969Z,98400.06
2022-08-07T11:15:18.153Z,98395.63
2022-08-07T11:16:30.547Z,98399.78
2022-08-07T11:17:45.825Z,98393.78
2022-08-07T11:18:51.212Z,98402.75
2022-08-07T11:20:07.541Z,98391.03
2022-08-07T11:21:33.600Z,98403.53
2022-08-07T11:23:04.506Z,98395.81
2022-08-07T11:24:22.783Z,98393.91
2022-08-07T11:25:50.000Z,98392.03
2022-08-07T11:27:02.199Z,98388.13
2022-08-07T11:28:15.294Z,98384.59
2022-08-07T11:29:42.152Z,98383.88
2022-08-07T11:31:02.268Z,98377.13
2022-08-07T11:32:15.358Z,98378.91
2022-08-07T11:33:59.267Z,98381.75
2022-08-07T11:35:10.214Z,98381.22
2022-08-07T11:36:36.063Z,98382.47
2022-08-07T11:38:10.149Z,98370.53
2022-08-07T11:39:39.776Z,98376.28
2022-08-07T11:41:18.181Z,98369.16
2022-08-07T11:42:51.066Z,98373.56
2022-08-07T11:44:18.743Z,98376.59
2022-08-07T11:45:58.956Z,98370.78
2022-08-07T11:47:39.139Z,98366.53
2022-08-07T11:49:50.090Z,98371.41
2022-08-07T11:51:04.013Z,98373.03
2022-08-07T11:52:37.785Z,98365.66
2022-08-07T11:54:01.096Z,98365.62
2022-08-07T11:56:19.809Z,98364.72
2022-08-07T11:57:16.086Z,98363.50
2022-08-07T11:58:43.646Z,98368.25
2022-08-07T12:00:19.281Z,98359.28
2022-08-07T12:01:58.708Z,98354.84
2022-08-07T12:03:42.313Z,98363.56
2022-08-07T12:05:15.225Z,98358.91
2022-08-07T12:06:57.218Z,98360.03
2022-08-07T12:08:25.924Z,98360.84
2022-08-07T12:09:39.719Z,98357.97
2022-08-07T12:11:20.500Z,98350.47
2022-08-07T12:12:35.905Z,98343.22
2022-08-07T12:13:47.566Z,98346.25
2022-08-07T12:15:17.297Z,98345.78
2022-08-07T12:16:38.101Z,98351.22
2022-08-07T12:17:58.822Z,98344.75
2022-08-07T12:19:21.439Z,98343.09
2022-08-07T12:20:38.200Z,98349.59
2022-08-07T12:22:39.179Z,98338.84
2022-08-07T12:24:06.828Z,98345.28
2022-08-07T12:26:21.430Z,98341.56
2022-08-07T12:27:28.137Z,98336.12
2022-08-07T12:29:01.967Z,98341.13
2022-08-07T12:30:09.095Z,98339.34
2022-08-07T12:32:02.054Z,98340.91
2022-08-07T12:33:28.234Z,98338.81
2022-08-07T12:34:37.110Z,98329.97
2022-08-07T12:35:41.427Z,98323.25
2022-08-07T12:36:53.637Z,98330.31
2022-08-07T12:38:09.467Z,98331.28
2022-08-07T12:39:43.217Z,98324.94
2022-08-07T12:40:50.382Z,98326.94
2022-08-07T12:41:54.805Z,98330.50
2022-08-07T12:43:00.039Z,98328.50
2022-08-07T12:44:10.418Z,98328.34
2022-08-07T12:45:27.047Z,98321.41
2022-08-07T12:46:46.271Z,98320.75
2022-08-07T12:48:27.943Z,98318.47
2022-08-07T12:50:05.226Z,98320.16
2022-08-07T12:51:51.037Z,98319.03
2022-08-07T12:53:21.928Z,98322.72
2022-08-07T12:55:09.739Z,98320.28
2022-08-07T12:56:33.681Z,98317.41
2022-08-07T12:58:01.119Z,98316.09
2022-08-07T12:59:08.356Z,98310.69
2022-08-07T13:00:16.356Z,98317.81
2022-08-07T13:01:55.862Z,98312.91
2022-08-07T13:04:02.623Z,98317.63
2022-08-07T13:06:04.665Z,98315.25
2022-08-07T13:07:01.026Z,98324.03
2022-08-07T13:08:28.119Z,98316.28
2022-08-07T13:10:28.600Z,98309.87
2022-08-07T13:12:02.268Z,98314.47
2022-08-07T13:13:13.402Z,98304.84
2022-08-07T13:15:14.334Z,98311.16
2022-08-07T13:17:01.249Z,98313.00
2022-08-07T13:18:29.996Z,98310.66
2022-08-07T13:19:59.690Z,98318.28
2022-08-07T13:21:57.394Z,98312.84
2022-08-07T13:24:04.070Z,98314.81
2022-08-07T13:25:06.885Z,98304.41
2022-08-07T13:26:30.588Z,98308.47
2022-08-07T13:28:12.686Z,98315.31
2022-08-07T13:29:17.126Z,98313.69
2022-08-07T13:30:40.966Z,98312.47
2022-08-07T13:31:57.895Z,98298.63
2022-08-07T13:34:31.225Z,98304.00
2022-08-07T13:34:58.485Z,98303.44
2022-08-07T13:36:08.613Z,98301.66
2022-08-07T13:37:58.799Z,98299.66
2022-08-07T13:39:13.120Z,98297.88
2022-08-07T13:40:42.831Z,98294.72
2022-08-07T13:41:51.414Z,98293.63
2022-08-07T13:43:12.353Z,98292.25
2022-08-07T13:44:25.950Z,98291.09
2022-08-07T13:46:12.830Z,98286.81
2022-08-07T13:46:59.655Z,98289.72
2022-08-07T13:48:08.691Z,98284.34
2022-08-07T13:50:32.719Z,98286.34
2022-08-07T13:50:45.052Z,98279.59
2022-08-07T13:52:22.878Z,98289.72
2022-08-07T13:53:35.935Z,98275.19
2022-08-07T13:54:57.597Z,98277.59
2022-08-07T13:56:00.720Z,98281.13
2022-08-07T13:57:14.690Z,98276.09
2022-08-07T13:58:54.207Z,98273.78
2022-08-07T14:00:02.493Z,98268.25
2022-08-07T14:01:15.790Z,98260.78
2022-08-07T14:02:39.547Z,98269.25
2022-08-07T14:04:06.857Z,98270.34
2022-08-07T14:05:15.684Z,98264.78
2022-08-07T14:06:19.734Z,98266.59
2022-08-07T14:07:33.575Z,98268.13
2022-08-07T14:08:45.471Z,98264.22
2022-08-07T14:10:12.340Z,98262.25
2022-08-07T14:11:24.030Z,98266.53
2022-08-07T14:12:55.813Z,98260.91
2022-08-07T14:14:07.740Z,98260.03
2022-08-07T14:15:36.165Z,98261.63
2022-08-07T14:16:49.866Z,98258.13
2022-08-07T14:18:23.766Z,98253.47
2022-08-07T14:20:40.898Z,98251.56
2022-08-07T14:21:08.301Z,98259.38
2022-08-07T14:22:34.070Z,98254.06
2022-08-07T14:24:01.131Z,98269.13
2022-08-07T14:25:16.705Z,98258.66
2022-08-07T14:26:30.115Z,98256.47
2022-08-07T14:28:11.079Z,98256.25
2022-08-07T14:30:09.527Z,98253.72
2022-08-07T14:30:34.160Z,98257.72
2022-08-07T14:31:42.843Z,98249.84
2022-08-07T14:32:58.685Z,98250.97
2022-08-07T14:34:03.205Z,98261.66
2022-08-07T14:35:16.419Z,98252.41
2022-08-07T14:36:41.051Z,98254.75
2022-08-07T14:38:05.821Z,98265.13
2022-08-07T14:39:12.545Z,98251.66
2022-08-07T14:40:35.733Z,98246.28
2022-08-07T14:42:19.985Z,98241.28
2022-08-07T14:43:55.340Z,98244.66
2022-08-07T14:44:53.048Z,98241.63
2022-08-07T14:45:58.736Z,98238.00
2022-08-07T14:47:08.733Z,98242.38
2022-08-07T14:48:27.262Z,98240.66
2022-08-07T14:49:57.114Z,98234.34
2022-08-07T14:51:00.130Z,98233.50
2022-08-07T14:52:10.312Z,98230.03
2022-08-07T14:53:14.353Z,98233.37
2022-08-07T14:54:34.503Z,98237.25
2022-08-07T14:55:55.916Z,98230.94
2022-08-07T14:57:02.154Z,98232.94
2022-08-07T14:58:06.596Z,98229.25
2022-08-07T15:00:55.627Z,98224.28
2022-08-07T15:02:31.787Z,98234.13
2022-08-07T15:03:51.579Z,98226.44
2022-08-07T15:05:01.807Z,98226.97
2022-08-07T15:06:05.377Z,98223.16
2022-08-07T15:07:23.992Z,98229.56
2022-08-07T15:08:54.762Z,98224.91
2022-08-07T15:10:02.028Z,98219.94
2022-08-07T15:11:14.994Z,98221.25
2022-08-07T15:12:30.563Z,98224.72
2022-08-07T15:13:38.149Z,98221.38
2022-08-07T15:14:57.789Z,98220.25
2022-08-07T15:16:10.917Z,98222.66
2022-08-07T15:17:18.248Z,98218.56
2022-08-07T15:18:33.755Z,98223.75